Time;durP1;ratioP1;P1;durP2;ratioP2;P2;SDS_P1;SDS_P2;PMS_P1;PMS_P2;Temp;Humidity;BMP_temperature;BMP_pressure;BME280_temperature;BME280_humidity;BME280_pressure;Samples;Min_cycle;Max_cycle;Signal;HPM_P1;HPM_P2
2022/03/13 00:00:17;;;;;;;22.08;17.48;;;8.40;74.30;;;;;;5114617;28;20046;-77
2022/03/13 00:02:45;;;;;;;22.30;17.00;;;8.40;74.30;;;;;;5114837;28;20043;-77
2022/03/13 00:05:14;;;;;;;22.08;16.30;;;8.40;74.40;;;;;;5114718;28;20104;-77
2022/03/13 00:07:43;;;;;;;21.55;17.15;;;8.30;74.30;;;;;;5114785;28;20043;-77
2022/03/13 00:10:10;;;;;;;24.90;16.50;;;8.30;74.30;;;;;;5114476;28;20119;-77
2022/03/13 00:12:36;;;;;;;21.85;17.42;;;8.30;74.20;;;;;;5114164;28;20132;-77
2022/03/13 00:15:05;;;;;;;19.77;16.15;;;8.30;74.30;;;;;;5114297;28;20047;-77
2022/03/13 00:17:31;;;;;;;23.60;17.77;;;8.30;74.40;;;;;;5097545;28;20126;-77
2022/03/13 00:20:02;;;;;;;21.35;16.30;;;8.30;74.40;;;;;;5097361;28;20587;-77
2022/03/13 00:22:29;;;;;;;18.98;15.60;;;8.30;74.30;;;;;;5114141;28;20126;-77
2022/03/13 00:24:56;;;;;;;19.85;16.02;;;8.20;74.50;;;;;;5114381;28;20043;-77
2022/03/13 00:27:22;;;;;;;21.17;16.23;;;8.20;74.50;;;;;;5097105;28;20032;-78
2022/03/13 00:29:48;;;;;;;19.75;16.13;;;8.20;74.50;;;;;;5097726;28;20100;-77
2022/03/13 00:32:14;;;;;;;23.88;16.95;;;8.10;74.70;;;;;;5113871;28;20081;-77
2022/03/13 00:34:40;;;;;;;24.10;17.80;;;8.20;74.60;;;;;;5096917;28;20070;-77
2022/03/13 00:37:06;;;;;;;25.35;18.23;;;8.10;75.00;;;;;;5113369;28;20036;-77
2022/03/13 00:39:32;;;;;;;22.45;16.10;;;8.10;74.90;;;;;;5080798;28;20040;-77
2022/03/13 00:41:57;;;;;;;21.67;16.40;;;8.10;74.70;;;;;;5097222;28;20108;-77
2022/03/13 00:44:23;;;;;;;19.63;16.75;;;8.10;75.10;;;;;;5114071;28;20040;-77
2022/03/13 00:46:49;;;;;;;24.13;17.38;;;8.10;75.10;;;;;;5113979;28;20032;-77
2022/03/13 00:49:14;;;;;;;22.27;17.17;;;8.10;75.50;;;;;;5096694;28;20444;-77
2022/03/13 00:51:40;;;;;;;24.27;16.55;;;8.00;75.10;;;;;;5096586;28;20097;-78
2022/03/13 00:54:06;;;;;;;23.40;17.48;;;8.00;75.10;;;;;;5079832;28;20063;-77
2022/03/13 00:56:32;;;;;;;23.10;16.40;;;8.00;75.50;;;;;;5096524;28;20047;-79
2022/03/13 00:58:58;;;;;;;21.75;15.90;;;8.00;75.50;;;;;;5113504;28;20036;-79
2022/03/13 01:01:24;;;;;;;23.02;17.50;;;8.00;75.60;;;;;;5113936;28;20039;-79
2022/03/13 01:03:51;;;;;;;20.75;15.65;;;8.00;75.90;;;;;;5079875;28;20032;-79
2022/03/13 01:06:18;;;;;;;24.60;17.92;;;8.00;75.70;;;;;;5113795;28;20383;-79
2022/03/13 01:08:46;;;;;;;21.38;16.70;;;8.00;76.20;;;;;;5113928;28;20081;-79
2022/03/13 01:11:14;;;;;;;21.17;16.20;;;7.90;76.10;;;;;;5113447;28;20058;-79
2022/03/13 01:13:40;;;;;;;26.20;17.20;;;7.90;75.90;;;;;;5096158;28;20044;-79
2022/03/13 01:16:14;;;;;;;25.95;17.38;;;7.90;76.20;;;;;;5113058;28;20056;-79
2022/03/13 01:19:01;;;;;;;22.00;17.30;;;7.90;76.40;;;;;;5096048;28;20036;-79
2022/03/13 01:21:29;;;;;;;23.52;16.15;;;7.90;76.00;;;;;;5112563;28;20047;-79
2022/03/13 01:24:16;;;;;;;21.67;15.75;;;7.90;76.20;;;;;;5112911;28;20039;-81
2022/03/13 01:26:42;;;;;;;20.67;16.40;;;8.00;76.10;;;;;;5113492;28;20047;-79
2022/03/13 01:29:13;;;;;;;20.92;16.42;;;8.00;76.20;;;;;;5095858;28;20104;-79
2022/03/13 01:31:42;;;;;;;20.17;17.08;;;8.00;76.00;;;;;;5112653;28;20043;-79
2022/03/13 01:34:12;;;;;;;20.20;15.43;;;8.10;75.90;;;;;;5112617;28;20050;-79
2022/03/13 01:36:38;;;;;;;21.52;17.13;;;8.10;76.10;;;;;;5096110;28;20067;-79
2022/03/13 01:39:06;;;;;;;23.38;17.08;;;8.00;76.00;;;;;;5112490;28;20040;-79
2022/03/13 01:41:34;;;;;;;21.52;17.02;;;8.10;76.10;;;;;;5112368;28;20093;-77
2022/03/13 01:44:01;;;;;;;22.35;17.08;;;8.00;76.60;;;;;;5095851;28;20392;-78
2022/03/13 01:46:28;;;;;;;24.15;18.30;;;8.00;76.70;;;;;;5112575;28;20074;-79
2022/03/13 01:49:03;;;;;;;22.17;16.42;;;8.00;76.40;;;;;;5112987;28;20391;-79
2022/03/13 01:51:31;;;;;;;21.50;17.35;;;8.00;76.50;;;;;;5112879;28;20120;-79
2022/03/13 01:54:04;;;;;;;20.90;16.08;;;8.00;77.10;;;;;;5112670;28;20043;-79
2022/03/13 01:56:33;;;;;;;22.95;17.25;;;7.90;77.10;;;;;;5112755;28;20031;-79
2022/03/13 01:58:59;;;;;;;21.48;17.13;;;8.00;77.30;;;;;;5112930;28;20130;-79
2022/03/13 02:01:28;;;;;;;22.40;17.92;;;7.90;77.00;;;;;;5112570;28;20573;-79
2022/03/13 02:03:55;;;;;;;22.75;17.48;;;8.00;77.10;;;;;;5095912;28;20433;-79
2022/03/13 02:06:25;;;;;;;26.52;17.67;;;8.00;77.50;;;;;;5095611;28;20039;-79
2022/03/13 02:08:51;;;;;;;21.35;16.73;;;8.00;77.80;;;;;;5112526;28;20043;-77
2022/03/13 02:11:19;;;;;;;21.52;16.55;;;7.90;77.40;;;;;;5112394;28;20496;-77
2022/03/13 02:13:50;;;;;;;21.88;15.75;;;8.00;77.80;;;;;;5078525;28;20043;-77
2022/03/13 02:16:18;;;;;;;21.55;17.02;;;8.00;77.50;;;;;;5095476;28;20059;-77
2022/03/13 02:18:53;;;;;;;23.00;16.88;;;8.00;77.30;;;;;;5112841;28;20043;-77
2022/03/13 02:21:25;;;;;;;22.08;16.08;;;8.00;77.40;;;;;;5112509;28;20035;-77
2022/03/13 02:23:51;;;;;;;23.65;18.17;;;8.00;77.60;;;;;;5112686;28;20089;-77
2022/03/13 02:26:20;;;;;;;23.55;17.15;;;8.00;77.30;;;;;;5095382;28;20054;-77
2022/03/13 02:28:55;;;;;;;22.65;17.10;;;8.00;77.50;;;;;;5112947;28;20498;-77
2022/03/13 02:31:34;;;;;;;22.35;17.15;;;8.00;77.40;;;;;;5112594;28;20052;-77
2022/03/13 02:34:00;;;;;;;23.40;16.90;;;7.90;77.60;;;;;;5112215;28;20047;-77
2022/03/13 02:36:32;;;;;;;22.58;16.55;;;7.90;77.50;;;;;;5112367;28;20028;-77
2022/03/13 02:39:01;;;;;;;21.20;17.35;;;7.90;77.70;;;;;;5113007;28;20384;-77
2022/03/13 02:41:27;;;;;;;23.23;17.05;;;7.90;77.70;;;;;;5112417;28;20040;-77
2022/03/13 02:43:54;;;;;;;23.52;17.35;;;7.80;78.00;;;;;;5095293;28;20484;-77
2022/03/13 02:46:21;;;;;;;21.65;18.25;;;7.80;78.00;;;;;;5095420;28;20044;-77
2022/03/13 02:48:49;;;;;;;24.17;17.70;;;7.80;77.80;;;;;;5112141;28;20048;-77
2022/03/13 02:51:15;;;;;;;22.08;17.92;;;7.80;77.90;;;;;;5112152;28;20073;-77
2022/03/13 02:53:41;;;;;;;20.42;16.58;;;7.80;77.80;;;;;;5111921;28;20040;-77
2022/03/13 02:56:07;;;;;;;23.85;18.10;;;7.80;77.80;;;;;;5111830;28;20050;-79
2022/03/13 02:58:33;;;;;;;22.83;18.02;;;7.90;77.70;;;;;;5112327;28;20031;-79
2022/03/13 03:00:59;;;;;;;21.83;16.50;;;7.90;78.30;;;;;;5099095;28;20122;-79
2022/03/13 03:03:26;;;;;;;22.50;16.88;;;7.80;77.80;;;;;;5098669;28;20488;-79
2022/03/13 03:05:52;;;;;;;22.30;16.67;;;7.80;78.20;;;;;;5115766;28;20039;-79
2022/03/13 03:08:19;;;;;;;21.17;16.98;;;7.80;77.70;;;;;;5116397;28;20493;-79
2022/03/13 03:10:45;;;;;;;23.88;16.52;;;7.80;77.90;;;;;;5116373;28;20360;-79
2022/03/13 03:13:13;;;;;;;23.65;17.27;;;7.90;77.90;;;;;;5116212;28;20101;-79
2022/03/13 03:15:39;;;;;;;19.48;15.35;;;7.80;77.90;;;;;;5115407;28;20058;-79
2022/03/13 03:18:07;;;;;;;20.55;15.68;;;7.80;77.80;;;;;;5115501;28;20035;-79
2022/03/13 03:20:34;;;;;;;20.35;16.20;;;7.80;78.10;;;;;;5115612;28;20040;-79
2022/03/13 03:23:00;;;;;;;23.40;17.42;;;7.80;77.90;;;;;;5115539;28;20043;-79
2022/03/13 03:25:28;;;;;;;24.75;18.67;;;7.80;78.00;;;;;;5115595;28;20663;-79
2022/03/13 03:27:55;;;;;;;20.13;16.10;;;7.80;78.00;;;;;;5115625;28;20101;-79
2022/03/13 03:30:27;;;;;;;21.80;16.40;;;7.80;78.20;;;;;;5115297;28;20051;-79
2022/03/13 03:32:54;;;;;;;22.50;16.70;;;7.70;78.00;;;;;;5115306;28;20043;-79
2022/03/13 03:35:22;;;;;;;23.25;16.27;;;7.70;78.20;;;;;;5098221;28;20116;-79
2022/03/13 03:37:49;;;;;;;23.15;17.25;;;7.80;78.10;;;;;;5115392;28;20046;-79
2022/03/13 03:40:14;;;;;;;20.55;16.65;;;7.70;78.10;;;;;;5115018;28;20040;-79
2022/03/13 03:42:41;;;;;;;23.20;17.58;;;7.70;78.00;;;;;;5115155;28;20135;-79
2022/03/13 03:45:09;;;;;;;21.90;16.55;;;7.80;78.10;;;;;;5098356;28;20036;-79
2022/03/13 03:47:35;;;;;;;21.10;17.02;;;7.80;78.10;;;;;;5115071;28;20043;-79
2022/03/13 03:50:01;;;;;;;21.30;16.60;;;7.80;78.00;;;;;;5097956;28;20088;-79
2022/03/13 03:52:27;;;;;;;21.50;17.15;;;7.80;78.20;;;;;;5097698;28;20052;-79
2022/03/13 03:54:52;;;;;;;22.65;17.13;;;7.80;78.00;;;;;;5097846;28;20036;-79
2022/03/13 03:57:19;;;;;;;21.48;17.10;;;7.80;77.80;;;;;;5114992;28;20040;-80
2022/03/13 03:59:45;;;;;;;20.52;15.43;;;7.80;78.40;;;;;;5114699;28;20460;-79
2022/03/13 04:02:11;;;;;;;21.92;15.88;;;7.80;78.30;;;;;;5114373;28;20118;-79
2022/03/13 04:04:36;;;;;;;21.52;16.40;;;7.80;78.20;;;;;;5114564;28;20043;-79
2022/03/13 04:07:02;;;;;;;19.02;15.30;;;7.90;78.10;;;;;;5080908;28;20040;-79
2022/03/13 04:09:28;;;;;;;20.77;15.70;;;7.90;78.10;;;;;;5097425;28;20043;-79
2022/03/13 04:11:54;;;;;;;21.20;16.02;;;7.90;78.00;;;;;;5113122;28;20039;-79
2022/03/13 04:14:21;;;;;;;19.25;15.15;;;7.90;78.30;;;;;;5097110;28;20043;-79
2022/03/13 04:16:47;;;;;;;21.23;16.00;;;7.90;78.10;;;;;;5131431;27;20113;-79
2022/03/13 04:19:13;;;;;;;19.95;15.80;;;7.90;77.90;;;;;;5097846;28;20119;-79
2022/03/13 04:21:41;;;;;;;19.45;15.82;;;7.90;77.90;;;;;;5114390;28;20361;-79
2022/03/13 04:24:07;;;;;;;19.42;15.10;;;7.90;77.90;;;;;;5114257;28;20061;-79
2022/03/13 04:26:33;;;;;;;23.58;14.88;;;7.90;77.80;;;;;;5097167;28;20047;-79
2022/03/13 04:28:59;;;;;;;19.17;15.38;;;7.90;77.90;;;;;;5114070;28;20040;-77
2022/03/13 04:31:25;;;;;;;18.30;14.52;;;7.90;78.00;;;;;;5097286;28;20050;-77
2022/03/13 04:33:50;;;;;;;20.67;15.70;;;7.90;77.90;;;;;;5114009;28;20415;-77
2022/03/13 04:36:21;;;;;;;22.05;16.80;;;7.90;77.90;;;;;;5096859;28;20044;-77
2022/03/13 04:38:47;;;;;;;22.33;16.77;;;7.90;78.10;;;;;;5097132;28;20395;-78
2022/03/13 04:41:13;;;;;;;22.02;16.73;;;7.90;78.10;;;;;;5113727;28;20043;-77
2022/03/13 04:43:38;;;;;;;21.67;16.73;;;7.90;78.10;;;;;;5113634;28;20040;-77
2022/03/13 04:46:05;;;;;;;20.70;15.82;;;7.80;78.20;;;;;;5113623;28;20048;-77
2022/03/13 04:48:32;;;;;;;21.13;16.10;;;7.90;78.10;;;;;;5113559;28;20475;-77
2022/03/13 04:50:59;;;;;;;21.10;16.88;;;7.80;78.10;;;;;;5113885;28;20051;-77
2022/03/13 04:53:26;;;;;;;21.35;16.05;;;7.80;78.10;;;;;;5096553;28;20070;-77
2022/03/13 04:55:51;;;;;;;22.25;15.70;;;7.80;78.00;;;;;;5113455;28;20044;-77
2022/03/13 04:58:18;;;;;;;23.63;16.83;;;7.80;77.90;;;;;;5113524;28;20084;-77
2022/03/13 05:00:47;;;;;;;20.73;16.08;;;7.70;78.00;;;;;;5113692;28;20074;-77
2022/03/13 05:03:14;;;;;;;20.42;15.70;;;7.80;77.90;;;;;;5097348;28;20039;-77
2022/03/13 05:05:40;;;;;;;23.67;16.95;;;7.80;77.80;;;;;;5113416;28;20483;-77
2022/03/13 05:08:15;;;;;;;20.33;16.50;;;7.70;78.20;;;;;;5096885;28;20058;-77
2022/03/13 05:10:43;;;;;;;20.35;16.02;;;7.70;78.20;;;;;;5098125;28;20475;-79
2022/03/13 05:13:14;;;;;;;23.58;16.60;;;7.70;78.00;;;;;;5096764;28;20050;-79
2022/03/13 05:15:44;;;;;;;21.63;16.40;;;7.60;78.30;;;;;;5113115;28;20048;-79
2022/03/13 05:18:10;;;;;;;21.13;17.65;;;7.60;78.20;;;;;;5113241;28;20050;-79
2022/03/13 05:20:36;;;;;;;22.95;17.48;;;7.60;78.20;;;;;;5096944;28;20040;-79
2022/03/13 05:23:03;;;;;;;21.17;16.63;;;7.60;78.10;;;;;;5112764;28;20096;-79
2022/03/13 05:25:32;;;;;;;20.25;15.85;;;7.60;78.10;;;;;;5113310;28;20050;-79
2022/03/13 05:27:59;;;;;;;21.95;16.48;;;7.60;78.00;;;;;;5113303;28;20429;-79
2022/03/13 05:30:25;;;;;;;21.58;17.52;;;7.60;78.00;;;;;;5112987;28;20047;-80
2022/03/13 05:32:51;;;;;;;23.90;17.30;;;7.60;77.80;;;;;;5095894;28;20047;-79
2022/03/13 05:35:17;;;;;;;22.67;16.83;;;7.60;77.80;;;;;;5113132;28;20035;-79
2022/03/13 05:37:47;;;;;;;22.00;16.42;;;7.60;77.70;;;;;;5112748;28;20043;-79
2022/03/13 05:40:15;;;;;;;23.75;17.38;;;7.60;77.70;;;;;;5112456;28;20050;-79
2022/03/13 05:42:43;;;;;;;22.77;17.55;;;7.60;77.70;;;;;;5112739;28;20040;-79
2022/03/13 05:45:10;;;;;;;24.08;18.65;;;7.60;77.70;;;;;;5112992;28;20176;-79
2022/03/13 05:47:44;;;;;;;22.52;17.35;;;7.50;77.90;;;;;;5112991;28;20399;-79
2022/03/13 05:50:10;;;;;;;25.40;17.88;;;7.50;77.80;;;;;;5112727;28;20044;-79
2022/03/13 05:52:36;;;;;;;24.33;17.88;;;7.50;78.00;;;;;;5113263;28;20040;-79
2022/03/13 05:55:02;;;;;;;23.00;17.73;;;7.40;78.30;;;;;;5096254;28;20371;-79
2022/03/13 05:57:27;;;;;;;23.00;17.63;;;7.40;78.20;;;;;;5112654;28;20131;-79
2022/03/13 05:59:53;;;;;;;23.50;18.60;;;7.50;78.10;;;;;;5112163;28;20096;-79
2022/03/13 06:02:20;;;;;;;23.73;17.77;;;7.40;78.10;;;;;;5078775;28;20043;-79
2022/03/13 06:04:46;;;;;;;26.40;18.73;;;7.40;78.40;;;;;;5079694;28;20043;-79
2022/03/13 06:07:12;;;;;;;25.00;18.13;;;7.30;78.50;;;;;;5095566;28;20039;-79
2022/03/13 06:09:37;;;;;;;23.98;18.35;;;7.30;78.40;;;;;;5095941;28;20040;-79
2022/03/13 06:12:03;;;;;;;22.20;17.45;;;7.40;78.40;;;;;;5112807;28;20081;-79
2022/03/13 06:14:29;;;;;;;25.80;18.95;;;7.30;78.40;;;;;;5112358;28;20400;-78
2022/03/13 06:16:55;;;;;;;23.75;17.00;;;7.40;78.40;;;;;;5095791;28;20044;-79
2022/03/13 06:19:21;;;;;;;25.25;17.40;;;7.40;78.10;;;;;;5112498;28;20434;-79
2022/03/13 06:21:48;;;;;;;23.58;18.45;;;7.40;77.90;;;;;;5095801;28;20031;-79
2022/03/13 06:24:14;;;;;;;23.10;18.17;;;7.40;77.70;;;;;;5096138;28;20052;-79
2022/03/13 06:26:39;;;;;;;22.02;17.42;;;7.50;77.50;;;;;;5112606;28;20032;-79
2022/03/13 06:29:05;;;;;;;23.10;17.63;;;7.50;77.40;;;;;;5113080;28;20536;-79
2022/03/13 06:31:31;;;;;;;23.33;17.70;;;7.50;77.30;;;;;;5078619;28;20498;-79
2022/03/13 06:33:57;;;;;;;24.45;16.83;;;7.60;77.10;;;;;;5096095;28;20176;-77
2022/03/13 06:36:23;;;;;;;22.13;16.48;;;7.60;77.00;;;;;;5101678;27;20048;-77
2022/03/13 06:38:48;;;;;;;25.30;17.73;;;7.60;77.00;;;;;;5116461;27;20032;-77
2022/03/13 06:41:17;;;;;;;23.58;17.38;;;7.60;76.90;;;;;;5116096;28;20039;-77
2022/03/13 06:43:42;;;;;;;24.38;17.48;;;7.60;76.90;;;;;;5116020;28;20550;-77
2022/03/13 06:46:08;;;;;;;20.55;16.88;;;7.60;77.00;;;;;;5115917;28;20127;-77
2022/03/13 06:48:34;;;;;;;23.80;17.27;;;7.60;77.00;;;;;;5098765;28;20074;-77
2022/03/13 06:51:00;;;;;;;24.90;18.60;;;7.60;77.10;;;;;;5115998;28;20047;-77
2022/03/13 06:53:26;;;;;;;21.35;17.23;;;7.60;77.20;;;;;;5116287;28;20047;-77
2022/03/13 06:55:52;;;;;;;22.85;18.52;;;7.50;77.10;;;;;;5116141;28;20036;-76
2022/03/13 06:58:18;;;;;;;22.60;18.27;;;7.50;77.10;;;;;;5123325;28;20036;-77
2022/03/13 07:00:45;;;;;;;21.23;16.25;;;7.50;76.90;;;;;;5117141;28;20060;-77
2022/03/13 07:03:12;;;;;;;20.13;15.30;;;7.50;76.70;;;;;;5116157;28;20043;-77
2022/03/13 07:05:38;;;;;;;21.15;16.70;;;7.50;76.60;;;;;;5116157;28;20086;-77
2022/03/13 07:08:04;;;;;;;22.35;16.50;;;7.60;76.30;;;;;;5098958;28;20081;-77
2022/03/13 07:10:29;;;;;;;22.38;17.63;;;7.60;76.30;;;;;;5098725;28;20035;-77
2022/03/13 07:12:58;;;;;;;21.85;17.60;;;7.60;76.20;;;;;;5115394;28;20035;-77
2022/03/13 07:15:26;;;;;;;20.90;16.40;;;7.70;76.00;;;;;;5098941;28;20052;-77
2022/03/13 07:17:53;;;;;;;19.80;15.38;;;7.70;75.90;;;;;;5098875;28;20399;-77
2022/03/13 07:20:19;;;;;;;19.90;16.42;;;7.80;75.80;;;;;;5115742;28;20054;-77
2022/03/13 07:22:46;;;;;;;19.25;15.60;;;7.80;75.70;;;;;;5098660;28;20054;-77
2022/03/13 07:25:14;;;;;;;22.83;15.88;;;7.80;75.60;;;;;;5115710;28;20097;-77
2022/03/13 07:27:40;;;;;;;19.85;16.25;;;7.90;75.40;;;;;;5081988;28;20408;-77
2022/03/13 07:30:08;;;;;;;21.48;16.65;;;7.90;75.50;;;;;;5115191;28;20043;-77
2022/03/13 07:32:35;;;;;;;21.15;16.65;;;8.00;75.10;;;;;;5098268;28;20035;-77
2022/03/13 07:35:01;;;;;;;20.25;15.65;;;8.00;75.00;;;;;;5098254;28;20035;-77
2022/03/13 07:37:27;;;;;;;19.98;15.95;;;8.00;74.90;;;;;;5098086;28;20039;-77
2022/03/13 07:39:53;;;;;;;23.17;16.38;;;8.00;74.90;;;;;;5098512;28;20032;-77
2022/03/13 07:42:19;;;;;;;19.00;15.35;;;8.00;74.40;;;;;;5115098;28;20575;-77
2022/03/13 07:44:44;;;;;;;20.08;16.27;;;8.00;73.90;;;;;;5114845;28;20036;-77
2022/03/13 07:47:11;;;;;;;22.30;16.48;;;8.00;74.40;;;;;;5098187;28;20438;-79
2022/03/13 07:49:37;;;;;;;21.90;16.85;;;8.00;74.50;;;;;;5107436;27;20039;-78
2022/03/13 07:52:03;;;;;;;21.42;15.80;;;8.00;73.90;;;;;;5086518;28;20415;-77
2022/03/13 07:54:29;;;;;;;20.25;15.95;;;8.00;74.10;;;;;;5104578;27;20043;-77
2022/03/13 07:56:54;;;;;;;18.65;15.73;;;8.00;74.20;;;;;;5104546;28;20428;-77
2022/03/13 07:59:20;;;;;;;19.08;15.20;;;8.00;73.10;;;;;;5117267;27;20039;-77
2022/03/13 08:01:47;;;;;;;24.35;15.90;;;8.00;73.60;;;;;;5097568;28;20036;-77
2022/03/13 08:04:14;;;;;;;19.92;16.10;;;8.00;73.50;;;;;;5124884;27;20051;-77
2022/03/13 08:06:40;;;;;;;20.73;16.67;;;8.00;73.00;;;;;;5135208;27;20073;-77
2022/03/13 08:09:06;;;;;;;19.38;15.43;;;8.10;73.40;;;;;;5129640;27;20036;-77
2022/03/13 08:11:36;;;;;;;21.63;16.10;;;8.10;73.30;;;;;;5127218;27;20039;-77
2022/03/13 08:14:10;;;;;;;17.83;15.13;;;8.10;73.30;;;;;;5108790;27;20043;-76
2022/03/13 08:16:35;;;;;;;17.92;14.07;;;8.20;73.00;;;;;;5109666;27;20051;-77
2022/03/13 08:19:02;;;;;;;22.02;14.40;;;8.20;72.80;;;;;;5129115;27;20391;-77
2022/03/13 08:21:28;;;;;;;18.67;14.75;;;8.20;72.60;;;;;;5116910;27;20043;-77
2022/03/13 08:23:54;;;;;;;19.48;13.98;;;8.20;72.40;;;;;;5097718;28;20054;-77
2022/03/13 08:26:20;;;;;;;20.83;15.63;;;8.30;71.60;;;;;;5114319;28;20053;-78
2022/03/13 08:28:46;;;;;;;19.75;14.82;;;8.30;71.40;;;;;;5114123;28;20559;-78
2022/03/13 08:31:13;;;;;;;21.95;16.05;;;8.30;71.40;;;;;;5114418;28;20082;-78
2022/03/13 08:33:42;;;;;;;21.52;15.45;;;8.40;71.80;;;;;;5113999;28;20131;-78
2022/03/13 08:36:08;;;;;;;20.27;15.88;;;8.40;71.10;;;;;;5097263;28;20040;-77
2022/03/13 08:38:33;;;;;;;21.45;15.63;;;8.50;70.90;;;;;;5119255;27;20032;-80
2022/03/13 08:41:00;;;;;;;20.50;15.88;;;8.60;71.20;;;;;;5114541;27;20125;-78
2022/03/13 08:43:25;;;;;;;20.10;14.60;;;8.60;70.80;;;;;;5114037;28;20045;-78
2022/03/13 08:45:51;;;;;;;21.17;14.55;;;8.80;69.50;;;;;;5097232;28;20592;-78
2022/03/13 08:48:17;;;;;;;18.58;13.57;;;8.90;69.90;;;;;;5113622;28;20048;-78
2022/03/13 08:50:43;;;;;;;18.27;14.00;;;9.00;68.40;;;;;;5096727;28;20066;-78
2022/03/13 08:53:09;;;;;;;19.27;14.68;;;9.10;68.10;;;;;;5113533;28;20046;-78
2022/03/13 08:55:34;;;;;;;17.98;14.23;;;9.20;68.30;;;;;;5113640;28;20035;-78
2022/03/13 08:58:00;;;;;;;18.90;15.35;;;9.30;67.80;;;;;;5115649;27;20035;-78
2022/03/13 09:00:26;;;;;;;19.42;14.20;;;9.30;67.40;;;;;;5116728;27;20433;-78
2022/03/13 09:02:53;;;;;;;17.80;13.90;;;9.40;67.20;;;;;;5134130;27;20122;-78
2022/03/13 09:05:20;;;;;;;16.85;13.93;;;9.40;66.30;;;;;;5134571;27;20043;-78
2022/03/13 09:07:46;;;;;;;18.23;14.45;;;9.50;66.70;;;;;;5116832;27;20050;-79
2022/03/13 09:10:13;;;;;;;19.13;13.65;;;9.50;66.80;;;;;;5117308;27;20047;-79
2022/03/13 09:12:39;;;;;;;17.55;13.38;;;9.50;66.70;;;;;;5116944;27;20395;-78
2022/03/13 09:15:06;;;;;;;16.95;13.50;;;9.50;66.40;;;;;;5116990;27;20083;-78
2022/03/13 09:17:33;;;;;;;19.92;13.65;;;9.50;66.10;;;;;;5117009;27;20080;-78
2022/03/13 09:19:59;;;;;;;20.13;13.98;;;9.50;65.20;;;;;;5116944;27;20035;-78
2022/03/13 09:22:30;;;;;;;18.58;14.15;;;9.50;65.30;;;;;;5133524;27;20387;-78
2022/03/13 09:24:57;;;;;;;17.95;14.02;;;9.60;65.50;;;;;;5130298;27;20407;-78
2022/03/13 09:27:28;;;;;;;18.35;13.80;;;9.60;65.50;;;;;;5097527;27;20074;-78
2022/03/13 09:29:54;;;;;;;17.85;13.18;;;9.80;65.20;;;;;;5124485;27;20069;-78
2022/03/13 09:32:22;;;;;;;18.27;13.85;;;9.90;64.30;;;;;;5125610;27;20042;-78
2022/03/13 09:34:48;;;;;;;20.15;14.73;;;10.00;64.90;;;;;;5128460;27;20106;-78
2022/03/13 09:37:14;;;;;;;18.50;15.00;;;10.10;64.80;;;;;;5116061;27;20521;-80
2022/03/13 09:39:40;;;;;;;18.38;14.32;;;10.20;64.40;;;;;;5113191;28;20061;-80
2022/03/13 09:42:06;;;;;;;18.10;14.30;;;10.40;64.80;;;;;;5112966;28;20054;-82
2022/03/13 09:44:31;;;;;;;17.13;13.82;;;10.60;64.30;;;;;;5095797;28;20039;-80
2022/03/13 09:46:57;;;;;;;16.48;13.35;;;10.90;63.00;;;;;;5113107;28;20403;-80
2022/03/13 09:49:24;;;;;;;22.35;13.23;;;11.00;61.00;;;;;;5095986;28;20035;-80
2022/03/13 09:51:51;;;;;;;15.38;13.05;;;11.20;61.10;;;;;;5112771;28;20040;-81
2022/03/13 09:54:17;;;;;;;16.88;13.73;;;11.30;59.80;;;;;;5095625;28;20108;-78
2022/03/13 09:56:43;;;;;;;17.42;13.15;;;11.40;60.10;;;;;;5095491;28;20377;-79
2022/03/13 09:59:09;;;;;;;16.50;13.93;;;11.50;59.00;;;;;;5095263;28;20054;-79
2022/03/13 10:01:35;;;;;;;18.60;13.68;;;11.40;58.40;;;;;;5096046;28;20032;-78
2022/03/13 10:04:02;;;;;;;19.38;13.70;;;11.50;59.20;;;;;;5096051;28;20046;-80
2022/03/13 10:06:33;;;;;;;16.48;13.60;;;11.40;57.20;;;;;;5112824;28;20102;-79
2022/03/13 10:08:59;;;;;;;17.58;13.18;;;11.40;59.20;;;;;;5096501;28;20092;-80
2022/03/13 10:11:33;;;;;;;17.65;13.45;;;11.40;58.90;;;;;;5117046;28;20126;-80
2022/03/13 10:14:10;;;;;;;18.25;15.48;;;11.40;57.90;;;;;;5100002;28;20047;-78
2022/03/13 10:16:37;;;;;;;18.73;14.55;;;11.50;59.20;;;;;;5117353;28;20055;-79
2022/03/13 10:19:18;;;;;;;19.10;14.25;;;11.50;59.90;;;;;;5099805;28;20035;-81
2022/03/13 10:22:00;;;;;;;18.17;14.15;;;11.60;59.50;;;;;;5116749;28;20040;-79
2022/03/13 10:24:27;;;;;;;31.52;27.05;;;11.70;59.10;;;;;;5116722;28;20079;-80
2022/03/13 10:27:17;;;;;;;19.98;15.40;;;11.70;59.50;;;;;;5066628;28;20079;-81
2022/03/13 10:29:45;;;;;;;19.35;15.85;;;11.90;58.80;;;;;;5099311;28;20044;-80
2022/03/13 10:32:11;;;;;;;20.65;14.65;;;12.00;59.70;;;;;;5129193;27;20164;-81
2022/03/13 10:34:37;;;;;;;18.75;14.73;;;12.00;59.00;;;;;;5116186;27;20517;-80
2022/03/13 10:37:03;;;;;;;19.50;14.27;;;12.00;58.70;;;;;;5111272;28;20036;-81
2022/03/13 10:39:30;;;;;;;18.63;15.40;;;12.10;59.10;;;;;;5117163;27;20051;-80
2022/03/13 10:42:01;;;;;;;18.58;14.68;;;12.10;58.90;;;;;;5115339;28;20135;-79
2022/03/13 10:44:34;;;;;;;17.95;15.07;;;12.20;59.10;;;;;;5136278;27;20039;-78
2022/03/13 10:47:05;;;;;;;16.52;14.25;;;12.40;59.40;;;;;;5118149;27;20044;-79
2022/03/13 10:49:42;;;;;;;20.95;14.60;;;12.70;59.30;;;;;;5099236;28;20048;-80
2022/03/13 10:52:36;;;;;;;19.30;14.80;;;13.00;59.40;;;;;;5098928;28;20138;-80
2022/03/13 10:55:22;;;;;;;17.50;14.63;;;13.30;57.80;;;;;;5116225;28;20148;-80
2022/03/13 10:57:55;;;;;;;19.73;14.93;;;13.60;56.00;;;;;;5115792;28;20047;-80
2022/03/13 11:00:28;;;;;;;21.00;15.48;;;13.80;55.50;;;;;;5098051;28;20605;-80
2022/03/13 11:03:14;;;;;;;20.08;15.73;;;13.90;55.10;;;;;;5115636;28;20075;-81
2022/03/13 11:05:40;;;;;;;19.05;14.52;;;14.00;54.60;;;;;;5115726;28;20032;-81
2022/03/13 11:08:08;;;;;;;21.55;15.15;;;14.10;55.30;;;;;;5115721;28;20047;-80
2022/03/13 11:10:36;;;;;;;21.40;14.77;;;14.40;55.50;;;;;;5115803;28;20383;-80
2022/03/13 11:13:05;;;;;;;18.95;15.43;;;14.50;55.30;;;;;;5115551;28;20043;-81
2022/03/13 11:15:35;;;;;;;20.05;15.65;;;14.20;54.00;;;;;;5082102;28;20047;-81
2022/03/13 11:18:02;;;;;;;25.33;15.48;;;14.10;55.20;;;;;;5115615;28;20088;-80
2022/03/13 11:20:30;;;;;;;18.55;15.35;;;14.00;56.00;;;;;;5115342;28;20051;-81
2022/03/13 11:22:58;;;;;;;18.63;13.95;;;14.00;56.20;;;;;;5099007;28;20051;-81
2022/03/13 11:25:24;;;;;;;18.67;15.75;;;13.80;56.20;;;;;;5081855;28;20122;-81
2022/03/13 11:27:51;;;;;;;21.00;15.07;;;13.70;56.60;;;;;;5084507;28;20395;-81
2022/03/13 11:30:32;;;;;;;20.02;15.82;;;13.70;57.20;;;;;;5116366;28;20051;-81
2022/03/13 11:33:00;;;;;;;21.33;17.27;;;13.70;57.50;;;;;;5097384;28;20082;-82
2022/03/13 11:35:29;;;;;;;18.90;15.77;;;14.00;58.00;;;;;;5115571;28;20071;-82
2022/03/13 11:38:17;;;;;;;17.95;14.85;;;14.40;57.10;;;;;;5098820;28;20050;-80
2022/03/13 11:40:46;;;;;;;20.33;14.82;;;14.70;56.60;;;;;;5114792;28;20117;-81
2022/03/13 11:43:18;;;;;;;17.92;14.43;;;15.00;54.60;;;;;;5099032;28;20395;-81
2022/03/13 11:45:49;;;;;;;19.90;16.45;;;15.20;54.60;;;;;;5115353;28;20102;-81
2022/03/13 11:48:19;;;;;;;18.42;14.93;;;15.50;54.90;;;;;;5097761;28;20089;-80
2022/03/13 11:50:58;;;;;;;19.15;15.45;;;15.50;52.40;;;;;;5098174;28;20035;-81
2022/03/13 11:53:27;;;;;;;17.08;14.38;;;15.40;52.30;;;;;;5115150;28;20075;-81
2022/03/13 11:56:03;;;;;;;17.25;14.20;;;15.30;52.50;;;;;;5115105;28;20039;-80
2022/03/13 11:59:13;;;;;;;19.10;14.52;;;15.20;53.20;;;;;;5114983;28;20055;-79
2022/03/13 12:01:39;;;;;;;17.70;14.52;;;15.10;53.10;;;;;;5084970;28;20051;-81
2022/03/13 12:04:09;;;;;;;18.88;14.30;;;14.90;54.00;;;;;;5114452;28;20042;-80
2022/03/13 12:06:47;;;;;;;16.83;14.18;;;14.80;54.30;;;;;;5114420;28;20043;-80
2022/03/13 12:09:41;;;;;;;17.58;15.13;;;14.80;54.10;;;;;;5114431;28;20498;-80
2022/03/13 12:12:09;;;;;;;19.73;14.77;;;14.70;54.50;;;;;;5111766;28;20054;-80
2022/03/13 12:14:57;;;;;;;18.55;14.98;;;14.70;55.10;;;;;;5113968;28;20089;-79
2022/03/13 12:17:28;;;;;;;18.35;14.30;;;14.80;54.70;;;;;;5097130;28;20446;-80
2022/03/13 12:19:59;;;;;;;17.25;12.80;;;14.80;55.80;;;;;;5114156;28;20564;-80
2022/03/13 12:22:27;;;;;;;14.63;12.13;;;15.00;56.00;;;;;;5097246;28;20419;-80
2022/03/13 12:24:55;;;;;;;16.05;13.70;;;15.00;55.00;;;;;;5113980;28;20043;-80
2022/03/13 12:27:23;;;;;;;15.48;12.23;;;15.30;54.60;;;;;;5097049;28;20032;-80
2022/03/13 12:29:50;;;;;;;16.10;12.50;;;15.60;54.00;;;;;;5096596;28;20032;-79
2022/03/13 12:32:16;;;;;;;15.02;13.43;;;15.90;53.10;;;;;;5095994;28;20040;-80
2022/03/13 12:34:44;;;;;;;17.17;13.68;;;16.20;52.50;;;;;;5096590;28;20054;-80
2022/03/13 12:37:10;;;;;;;14.23;11.15;;;16.40;53.00;;;;;;5113474;28;20043;-81
2022/03/13 12:39:48;;;;;;;14.88;12.23;;;16.50;50.80;;;;;;5113837;28;20046;-80